createdAt,value
2019-02-05T00:00:04.080Z,6.50
2019-02-05T00:01:04.071Z,5.70
2019-02-05T00:02:04.133Z,6.10
2019-02-05T00:03:04.045Z,7.20
2019-02-05T00:04:04.035Z,7.20
2019-02-05T00:05:04.036Z,6.00
2019-02-05T00:06:04.014Z,3.60
2019-02-05T00:07:03.999Z,7.40
2019-02-05T00:08:03.988Z,4.90
2019-02-05T00:09:03.975Z,7.20
2019-02-05T00:10:03.970Z,7.40
2019-02-05T00:11:03.970Z,8.90
2019-02-05T00:12:03.999Z,3.90
2019-02-05T00:13:03.929Z,8.50
2019-02-05T00:14:03.919Z,6.10
2019-02-05T00:15:03.905Z,6.00
2019-02-05T00:16:03.909Z,5.60
2019-02-05T00:17:03.882Z,6.30
2019-02-05T00:18:03.872Z,5.60
2019-02-05T00:19:03.859Z,6.30
2019-02-05T00:20:03.849Z,4.20
2019-02-05T00:21:03.836Z,4.30
2019-02-05T00:22:03.825Z,3.50
2019-02-05T00:23:03.812Z,7.70
2019-02-05T00:24:03.801Z,4.80
2019-02-05T00:25:03.787Z,7.90
2019-02-05T00:26:06.420Z,11.60
2019-02-05T00:27:03.764Z,8.50
2019-02-05T00:28:03.754Z,8.40
2019-02-05T00:29:03.741Z,9.80
2019-02-05T00:30:03.730Z,9.60
2019-02-05T00:31:03.716Z,6.60
2019-02-05T00:32:03.705Z,10.30
2019-02-05T00:33:03.693Z,7.60
2019-02-05T00:34:03.682Z,5.10
2019-02-05T00:35:03.669Z,9.60
2019-02-05T00:36:03.657Z,8.60
2019-02-05T00:37:03.646Z,8.70
2019-02-05T00:38:03.634Z,9.20
2019-02-05T00:39:03.619Z,11.80
2019-02-05T00:40:03.613Z,9.60
2019-02-05T00:41:03.597Z,12.40
2019-02-05T00:42:03.586Z,11.60
2019-02-05T00:43:03.572Z,8.60
2019-02-05T00:44:03.560Z,10.40
2019-02-05T00:45:03.549Z,9.10
2019-02-05T00:46:03.537Z,11.00
2019-02-05T00:47:03.523Z,9.00
2019-02-05T00:48:03.513Z,7.40
2019-02-05T00:49:03.504Z,8.80
2019-02-05T00:50:03.489Z,6.10
2019-02-05T00:51:03.475Z,5.00
2019-02-05T00:52:03.463Z,10.60
2019-02-05T00:53:03.449Z,9.90
2019-02-05T00:54:03.441Z,10.20
2019-02-05T00:55:03.426Z,6.90
2019-02-05T00:56:03.417Z,11.40
2019-02-05T00:57:03.401Z,9.90
2019-02-05T00:58:03.401Z,8.10
2019-02-05T00:59:03.377Z,8.00
2019-02-05T01:00:03.375Z,8.30
2019-02-05T01:01:03.352Z,11.80
2019-02-05T01:02:03.342Z,10.60
2019-02-05T01:03:03.328Z,15.00
2019-02-05T01:04:03.319Z,12.10
2019-02-05T01:05:03.306Z,12.80
2019-02-05T01:06:03.315Z,10.90
2019-02-05T01:07:03.279Z,12.70
2019-02-05T01:08:03.269Z,13.30
2019-02-05T01:09:03.259Z,9.20
2019-02-05T01:10:03.244Z,13.20
2019-02-05T01:11:03.230Z,9.50
2019-02-05T01:12:03.221Z,12.90
2019-02-05T01:13:03.205Z,8.00
2019-02-05T01:14:03.196Z,10.40
2019-02-05T01:15:03.189Z,12.60
2019-02-05T01:16:03.170Z,15.90
2019-02-05T01:17:03.156Z,11.90
2019-02-05T01:18:03.147Z,15.40
2019-02-05T01:19:03.132Z,14.60
2019-02-05T01:20:03.122Z,17.70
2019-02-05T01:21:03.107Z,12.90
2019-02-05T01:22:03.100Z,15.40
2019-02-05T01:23:03.083Z,14.10
2019-02-05T01:24:03.074Z,18.40
2019-02-05T01:25:03.058Z,13.00
2019-02-05T01:26:03.051Z,13.60
2019-02-05T01:27:03.049Z,14.50
2019-02-05T01:28:03.023Z,12.90
2019-02-05T01:29:03.009Z,7.70
2019-02-05T01:30:02.998Z,15.40
2019-02-05T01:31:02.997Z,12.30
2019-02-05T01:32:02.973Z,10.80
2019-02-05T01:33:02.959Z,17.90
2019-02-05T01:34:02.949Z,19.00
2019-02-05T01:35:02.959Z,16.60
2019-02-05T01:36:02.924Z,16.60
2019-02-05T01:37:02.909Z,17.60
2019-02-05T01:38:02.900Z,17.70
2019-02-05T01:39:02.885Z,19.50
2019-02-05T01:40:02.875Z,17.60
2019-02-05T01:41:02.860Z,16.50
2019-02-05T01:42:02.853Z,17.50
2019-02-05T01:43:02.836Z,10.80
2019-02-05T01:44:02.826Z,17.60
2019-02-05T01:45:02.811Z,12.30
2019-02-05T01:46:02.801Z,7.30
2019-02-05T01:47:02.787Z,12.80
2019-02-05T01:48:02.776Z,13.60
2019-02-05T01:49:02.764Z,15.40
2019-02-05T01:50:02.753Z,13.40
2019-02-05T01:51:02.737Z,18.30
2019-02-05T01:52:02.727Z,13.40
2019-02-05T01:53:02.713Z,18.30
2019-02-05T01:54:02.703Z,20.50
2019-02-05T01:55:02.691Z,19.10
2019-02-05T01:56:02.680Z,17.60
2019-02-05T01:57:02.664Z,17.20
2019-02-05T01:58:02.655Z,8.10
2019-02-05T01:59:02.639Z,15.10
2019-02-05T02:00:02.629Z,18.30
2019-02-05T02:01:02.614Z,13.70
2019-02-05T02:02:02.605Z,12.00
2019-02-05T02:03:02.597Z,15.30
2019-02-05T02:04:02.580Z,15.20
2019-02-05T02:05:02.565Z,13.60
2019-02-05T02:06:02.556Z,14.60
2019-02-05T02:07:02.541Z,20.70
2019-02-05T02:08:02.531Z,20.40
2019-02-05T02:09:02.517Z,12.90
2019-02-05T02:10:02.508Z,13.20
2019-02-05T02:11:02.492Z,20.90
2019-02-05T02:12:02.482Z,13.50
2019-02-05T02:13:02.472Z,15.50
2019-02-05T02:14:02.457Z,19.60
2019-02-05T02:15:02.443Z,20.70
2019-02-05T02:16:02.432Z,20.60
2019-02-05T02:17:02.417Z,19.30
2019-02-05T02:18:02.411Z,18.70
2019-02-05T02:19:02.394Z,19.60
2019-02-05T02:20:02.385Z,22.20
2019-02-05T02:21:02.371Z,20.10
2019-02-05T02:22:02.359Z,18.60
2019-02-05T02:23:02.345Z,17.80
2019-02-05T02:24:02.334Z,21.90
2019-02-05T02:25:02.319Z,18.90
2019-02-05T02:26:02.310Z,22.50
2019-02-05T02:27:02.297Z,21.30
2019-02-05T02:28:02.285Z,17.80
2019-02-05T02:29:02.271Z,11.90
2019-02-05T02:30:02.270Z,13.20
2019-02-05T02:31:02.248Z,17.80
2019-02-05T02:32:02.251Z,17.70
2019-02-05T02:33:02.223Z,14.60
2019-02-05T02:34:02.213Z,18.20
2019-02-05T02:35:02.200Z,16.40
2019-02-05T02:36:02.189Z,19.40
2019-02-05T02:37:02.173Z,17.50
2019-02-05T02:38:02.167Z,18.70
2019-02-05T02:39:02.148Z,12.40
2019-02-05T02:40:02.151Z,13.50
2019-02-05T02:41:02.129Z,17.70
2019-02-05T02:42:02.114Z,21.30
2019-02-05T02:43:02.099Z,20.50
2019-02-05T02:44:02.089Z,14.80
2019-02-05T02:45:02.132Z,14.30
2019-02-05T02:46:02.316Z,11.80
2019-02-05T02:47:02.055Z,19.80
2019-02-05T02:48:02.050Z,10.30
2019-02-05T02:49:02.032Z,14.90
2019-02-05T02:50:02.017Z,20.60
2019-02-05T02:51:02.003Z,19.30
2019-02-05T02:52:01.998Z,16.10
2019-02-05T02:53:01.978Z,19.70
2019-02-05T02:54:01.968Z,21.00
2019-02-05T02:55:01.959Z,22.00
2019-02-05T02:56:01.952Z,21.00
2019-02-05T02:57:04.863Z,16.20
2019-02-05T02:58:01.920Z,22.50
2019-02-05T02:59:01.903Z,22.10
2019-02-05T03:00:01.893Z,24.10
2019-02-05T03:01:01.881Z,24.20
2019-02-05T03:02:01.871Z,24.20
2019-02-05T03:03:01.856Z,21.80
2019-02-05T03:04:01.844Z,21.10
2019-02-05T03:05:01.834Z,22.90
2019-02-05T03:06:01.819Z,18.20
2019-02-05T03:07:01.806Z,14.60
2019-02-05T03:08:01.794Z,22.00
2019-02-05T03:09:01.783Z,22.80
2019-02-05T03:10:01.775Z,18.90
2019-02-05T03:11:01.758Z,12.80
2019-02-05T03:12:01.749Z,23.50
2019-02-05T03:13:01.740Z,24.00
2019-02-05T03:14:01.723Z,16.90
2019-02-05T03:15:01.709Z,17.90
2019-02-05T03:16:01.744Z,20.40
2019-02-05T03:17:01.697Z,19.30
2019-02-05T03:18:01.674Z,24.00
2019-02-05T03:19:01.662Z,16.70
2019-02-05T03:20:01.649Z,22.10
2019-02-05T03:21:01.636Z,22.50
2019-02-05T03:22:01.627Z,20.90
2019-02-05T03:23:01.613Z,23.80
2019-02-05T03:24:01.602Z,24.20
2019-02-05T03:25:01.588Z,25.60
2019-02-05T03:26:01.579Z,19.00
2019-02-05T03:27:01.564Z,22.70
2019-02-05T03:28:01.557Z,26.50
2019-02-05T03:29:01.540Z,17.20
2019-02-05T03:30:01.535Z,23.80
2019-02-05T03:31:01.520Z,27.10
2019-02-05T03:32:01.504Z,23.50
2019-02-05T03:33:01.494Z,23.50
2019-02-05T03:34:01.479Z,21.10
2019-02-05T03:35:01.493Z,22.20
2019-02-05T03:36:01.457Z,25.50
2019-02-05T03:37:01.454Z,25.20
2019-02-05T03:38:01.432Z,19.30
2019-02-05T03:39:01.421Z,25.20
2019-02-05T03:40:01.407Z,20.10
2019-02-05T03:41:01.397Z,25.50
2019-02-05T03:42:01.383Z,25.40
2019-02-05T03:43:01.375Z,28.20
2019-02-05T03:44:01.359Z,26.10
2019-02-05T03:45:01.359Z,27.50
2019-02-05T03:46:01.336Z,24.20
2019-02-05T03:47:01.326Z,24.50
2019-02-05T03:48:01.311Z,26.50
2019-02-05T03:49:01.308Z,28.70
2019-02-05T03:50:01.288Z,28.10
2019-02-05T03:51:01.279Z,27.20
2019-02-05T03:52:01.265Z,27.30
2019-02-05T03:53:01.256Z,28.60
2019-02-05T03:54:01.242Z,27.40
2019-02-05T03:55:01.248Z,28.80
2019-02-05T03:56:01.303Z,25.10
2019-02-05T03:57:01.220Z,27.10
2019-02-05T03:58:01.195Z,29.70
2019-02-05T03:59:01.191Z,28.40
2019-02-05T04:00:01.212Z,29.70
2019-02-05T04:01:01.163Z,27.80
2019-02-05T04:02:01.159Z,30.30
2019-02-05T04:03:01.141Z,29.10
2019-02-05T04:04:01.127Z,29.40
2019-02-05T04:05:01.116Z,28.90
2019-02-05T04:06:01.104Z,29.40
2019-02-05T04:07:01.095Z,26.90
2019-02-05T04:08:01.079Z,30.00
2019-02-05T04:09:01.074Z,24.50
2019-02-05T04:10:01.058Z,31.60
2019-02-05T04:11:01.048Z,29.90
2019-02-05T04:12:01.632Z,32.20
2019-02-05T04:13:01.025Z,25.10
2019-02-05T04:14:01.011Z,27.20
2019-02-05T04:15:01.257Z,25.30
2019-02-05T04:16:00.988Z,26.80
2019-02-05T04:17:00.985Z,24.20
2019-02-05T04:18:00.964Z,32.40
2019-02-05T04:19:00.957Z,33.10
2019-02-05T04:20:00.940Z,31.90
2019-02-05T04:21:00.934Z,25.80
2019-02-05T04:22:00.917Z,28.70
2019-02-05T04:23:00.909Z,36.30
2019-02-05T04:24:00.894Z,35.90
2019-02-05T04:25:00.884Z,30.60
2019-02-05T04:26:00.872Z,37.10
2019-02-05T04:27:00.863Z,36.90
2019-02-05T04:28:00.846Z,31.70
2019-02-05T04:29:00.847Z,35.50
2019-02-05T04:30:00.823Z,37.30
2019-02-05T04:31:00.813Z,23.00
2019-02-05T04:32:00.800Z,42.90
2019-02-05T04:33:00.895Z,40.40
2019-02-05T04:34:00.775Z,40.50
2019-02-05T04:35:00.820Z,42.10
2019-02-05T04:36:00.751Z,42.20
2019-02-05T04:37:00.742Z,45.00
2019-02-05T04:38:00.728Z,45.10
2019-02-05T04:39:00.718Z,41.30
2019-02-05T04:40:00.703Z,37.00
2019-02-05T04:41:00.794Z,36.60
2019-02-05T04:42:00.680Z,46.80
2019-02-05T04:43:00.672Z,45.20
2019-02-05T04:44:00.659Z,45.70
2019-02-05T04:45:00.948Z,53.30
2019-02-05T04:46:00.633Z,53.10
2019-02-05T04:47:00.627Z,53.80
2019-02-05T04:48:00.609Z,53.60
2019-02-05T04:49:00.599Z,51.60
2019-02-05T04:50:00.631Z,51.60
2019-02-05T04:51:00.579Z,32.70
2019-02-05T04:52:00.562Z,46.50
2019-02-05T04:53:00.559Z,57.00
2019-02-05T04:54:00.539Z,58.40
2019-02-05T04:55:00.529Z,46.00
2019-02-05T04:56:00.517Z,49.30
2019-02-05T04:57:00.506Z,50.70
2019-02-05T04:58:01.642Z,56.10
2019-02-05T04:59:00.482Z,60.90
2019-02-05T05:00:00.501Z,60.80
2019-02-05T05:01:00.458Z,60.80
2019-02-05T05:02:00.444Z,59.00
2019-02-05T05:03:00.437Z,61.30
2019-02-05T05:04:00.421Z,65.90
2019-02-05T05:05:00.412Z,73.10
2019-02-05T05:06:00.397Z,42.10
2019-02-05T05:07:00.389Z,47.30
2019-02-05T05:08:00.377Z,62.40
2019-02-05T05:09:00.364Z,66.90
2019-02-05T05:10:00.501Z,66.20
2019-02-05T05:11:00.341Z,68.70
2019-02-05T05:12:00.327Z,72.40
2019-02-05T05:13:00.317Z,71.40
2019-02-05T05:14:00.303Z,62.00
2019-02-05T05:15:00.755Z,73.40
2019-02-05T05:16:00.279Z,56.90
2019-02-05T05:17:00.269Z,72.20
2019-02-05T05:18:00.255Z,77.50
2019-02-05T05:19:00.252Z,74.70
2019-02-05T05:20:00.483Z,75.10
2019-02-05T05:21:00.222Z,63.00
2019-02-05T05:22:00.209Z,45.10
2019-02-05T05:23:00.200Z,80.60
2019-02-05T05:24:00.215Z,54.40
2019-02-05T05:25:00.340Z,76.70
2019-02-05T05:26:00.164Z,71.90
2019-02-05T05:27:00.157Z,59.30
2019-02-05T05:28:09.678Z,73.80
2019-02-05T05:29:00.134Z,73.10
2019-02-05T05:30:00.345Z,73.00
2019-02-05T05:31:00.117Z,75.30
2019-02-05T05:32:00.094Z,80.00
2019-02-05T05:33:00.083Z,61.30
2019-02-05T05:34:00.068Z,71.80
2019-02-05T05:35:00.099Z,70.00
2019-02-05T05:36:00.045Z,65.90
2019-02-05T05:37:00.047Z,64.30
2019-02-05T05:38:00.022Z,70.80
2019-02-05T05:39:00.013Z,82.90
2019-02-05T05:39:59.998Z,78.70
2019-02-05T05:40:59.990Z,83.90
2019-02-05T05:41:59.978Z,93.90
2019-02-05T05:42:59.986Z,88.30
2019-02-05T05:43:59.954Z,50.00
2019-02-05T05:44:59.942Z,70.10
2019-02-05T05:46:00.231Z,72.50
2019-02-05T05:46:59.922Z,75.60
2019-02-05T05:47:59.910Z,83.70
2019-02-05T05:48:59.895Z,79.10
2019-02-05T05:49:59.885Z,89.90
2019-02-05T05:50:59.875Z,92.70
2019-02-05T05:51:59.862Z,78.40
2019-02-05T05:52:59.848Z,80.40
2019-02-05T05:53:59.835Z,84.90
2019-02-05T05:54:59.832Z,87.20
2019-02-05T05:55:59.814Z,69.60
2019-02-05T05:56:59.803Z,102.30
2019-02-05T05:57:59.789Z,92.00
2019-02-05T05:58:59.779Z,93.70
2019-02-05T05:59:59.767Z,94.50
2019-02-05T06:00:59.755Z,97.80
2019-02-05T06:01:59.741Z,90.90
2019-02-05T06:02:59.733Z,83.60
2019-02-05T06:03:59.720Z,96.90
2019-02-05T06:04:59.710Z,91.50
2019-02-05T06:05:59.698Z,91.40
2019-02-05T06:06:59.688Z,84.20
2019-02-05T06:07:59.672Z,60.70
2019-02-05T06:08:59.666Z,77.30
2019-02-05T06:09:59.652Z,82.30
2019-02-05T06:10:59.753Z,88.40
2019-02-05T06:11:59.630Z,93.30
2019-02-05T06:12:59.699Z,91.60
2019-02-05T06:13:59.605Z,100.20
2019-02-05T06:14:59.623Z,102.30
2019-02-05T06:15:59.585Z,88.40
2019-02-05T06:16:59.577Z,95.40
2019-02-05T06:17:59.560Z,88.20
2019-02-05T06:18:59.554Z,99.20
2019-02-05T06:19:59.537Z,92.80
2019-02-05T06:20:59.530Z,82.10
2019-02-05T06:21:59.593Z,92.90
2019-02-05T06:22:59.510Z,85.70
2019-02-05T06:23:59.493Z,84.60
2019-02-05T06:24:59.484Z,88.90
2019-02-05T06:25:59.471Z,94.10
2019-02-05T06:26:59.463Z,88.80
2019-02-05T06:27:59.452Z,86.60
2019-02-05T06:28:59.440Z,88.90
2019-02-05T06:29:59.427Z,115.40
2019-02-05T06:30:59.426Z,64.00
2019-02-05T06:31:59.406Z,88.90
2019-02-05T06:32:59.408Z,73.50
2019-02-05T06:33:59.386Z,86.90
2019-02-05T06:34:59.374Z,80.40
2019-02-05T06:35:59.360Z,74.10
2019-02-05T06:36:59.351Z,79.90
2019-02-05T06:37:59.357Z,70.50
2019-02-05T06:38:59.344Z,62.90
2019-02-05T06:39:59.315Z,60.50
2019-02-05T06:40:59.317Z,77.10
2019-02-05T06:41:59.307Z,66.60
2019-02-05T06:42:59.283Z,87.20
2019-02-05T06:43:59.269Z,93.00
2019-02-05T06:44:59.263Z,69.30
2019-02-05T06:45:59.249Z,63.70
2019-02-05T06:46:59.237Z,76.10
2019-02-05T06:47:59.223Z,106.30
2019-02-05T06:48:59.215Z,80.90
2019-02-05T06:49:59.201Z,85.20
2019-02-05T06:50:59.192Z,87.30
2019-02-05T06:51:59.177Z,90.70
2019-02-05T06:52:59.169Z,98.50
2019-02-05T06:53:59.156Z,109.60
2019-02-05T06:54:59.145Z,101.80
2019-02-05T06:55:59.131Z,43.20
2019-02-05T06:56:59.122Z,84.90
2019-02-05T06:57:59.111Z,101.10
2019-02-05T06:58:59.099Z,106.20
2019-02-05T06:59:59.091Z,84.00
2019-02-05T07:00:59.085Z,82.60
2019-02-05T07:01:59.062Z,89.50
2019-02-05T07:02:59.054Z,110.10
2019-02-05T07:03:59.038Z,101.50
2019-02-05T07:04:59.029Z,115.60
2019-02-05T07:05:59.020Z,111.20
2019-02-05T07:06:59.009Z,116.10
2019-02-05T07:07:58.997Z,105.20
2019-02-05T07:08:58.985Z,93.60
2019-02-05T07:09:58.981Z,105.40
2019-02-05T07:10:58.964Z,75.70
2019-02-05T07:11:58.951Z,85.20
2019-02-05T07:12:59.053Z,109.60
2019-02-05T07:13:58.939Z,111.20
2019-02-05T07:14:58.915Z,122.40
2019-02-05T07:15:58.905Z,115.90
2019-02-05T07:16:58.892Z,124.20
2019-02-05T07:17:58.886Z,125.30
2019-02-05T07:18:58.869Z,128.50
2019-02-05T07:19:58.861Z,116.60
2019-02-05T07:20:58.846Z,125.90
2019-02-05T07:21:58.841Z,129.90
2019-02-05T07:22:58.827Z,119.10
2019-02-05T07:23:58.817Z,112.50
2019-02-05T07:24:58.801Z,119.30
2019-02-05T07:25:58.793Z,139.70
2019-02-05T07:26:58.781Z,121.20
2019-02-05T07:27:58.770Z,128.00
2019-02-05T07:29:02.050Z,127.00
2019-02-05T07:29:58.756Z,109.80
2019-02-05T07:30:58.734Z,93.90
2019-02-05T07:31:58.728Z,116.90
2019-02-05T07:32:58.712Z,120.10
2019-02-05T07:33:59.005Z,109.30
2019-02-05T07:34:58.696Z,110.50
2019-02-05T07:35:58.680Z,114.10
2019-02-05T07:36:58.667Z,110.50
2019-02-05T07:37:58.659Z,90.20
2019-02-05T07:38:58.895Z,95.00
2019-02-05T07:39:58.636Z,113.90
2019-02-05T07:40:58.626Z,116.50
2019-02-05T07:41:58.613Z,103.10
2019-02-05T07:42:58.602Z,104.40
2019-02-05T07:43:58.590Z,111.40
2019-02-05T07:44:58.579Z,103.00
2019-02-05T07:45:58.568Z,105.90
2019-02-05T07:46:58.555Z,116.50
2019-02-05T07:47:58.543Z,113.20
2019-02-05T07:48:58.535Z,104.10
2019-02-05T07:49:58.521Z,114.70
2019-02-05T07:50:58.516Z,118.40
2019-02-05T07:51:58.498Z,127.80
2019-02-05T07:52:58.489Z,110.90
2019-02-05T07:53:58.586Z,127.50
2019-02-05T07:54:58.468Z,111.40
2019-02-05T07:55:58.469Z,108.50
2019-02-05T07:56:58.446Z,117.20
2019-02-05T07:57:58.434Z,105.00
2019-02-05T07:59:09.576Z,100.00
2019-02-05T07:59:58.409Z,91.90
2019-02-05T08:00:58.403Z,87.70
2019-02-05T08:01:58.389Z,103.30
2019-02-05T08:02:58.383Z,90.40
2019-02-05T08:03:58.366Z,97.50
2019-02-05T08:05:00.734Z,93.20
2019-02-05T08:05:58.345Z,90.30
2019-02-05T08:06:58.336Z,87.10
2019-02-05T08:07:58.464Z,94.20
2019-02-05T08:08:58.565Z,87.50
2019-02-05T08:09:58.303Z,91.50
2019-02-05T08:10:58.293Z,77.90
2019-02-05T08:11:58.280Z,89.40
2019-02-05T08:12:58.272Z,95.70
2019-02-05T08:13:58.259Z,67.50
2019-02-05T08:14:58.251Z,66.20
2019-02-05T08:15:58.267Z,71.80
2019-02-05T08:16:58.230Z,80.00
2019-02-05T08:17:58.217Z,78.50
2019-02-05T08:18:58.209Z,72.00
2019-02-05T08:19:58.194Z,70.40
2019-02-05T08:20:58.208Z,74.70
2019-02-05T08:21:58.174Z,75.00
2019-02-05T08:22:58.167Z,69.20
2019-02-05T08:23:58.246Z,69.90
2019-02-05T08:24:58.147Z,72.00
2019-02-05T08:25:58.131Z,70.80
2019-02-05T08:26:58.124Z,67.20
2019-02-05T08:27:58.111Z,65.40
2019-02-05T08:28:58.104Z,71.20
2019-02-05T08:29:58.090Z,65.30
2019-02-05T08:30:58.084Z,64.60
2019-02-05T08:31:58.069Z,72.60
2019-02-05T08:32:58.061Z,74.30
2019-02-05T08:33:58.051Z,57.60
2019-02-05T08:34:58.042Z,69.30
2019-02-05T08:35:58.027Z,69.50
2019-02-05T08:36:58.019Z,66.80
2019-02-05T08:37:58.014Z,68.50
2019-02-05T08:38:58.001Z,67.80
2019-02-05T08:39:57.988Z,75.90
2019-02-05T08:40:57.976Z,72.00
2019-02-05T08:41:57.967Z,70.00
2019-02-05T08:42:57.956Z,61.30
2019-02-05T08:43:57.945Z,73.80
2019-02-05T08:44:57.934Z,74.70
2019-02-05T08:45:57.923Z,70.20
2019-02-05T08:46:57.915Z,59.00
2019-02-05T08:47:57.899Z,72.10
2019-02-05T08:48:57.892Z,69.70
2019-02-05T08:49:57.879Z,74.80
2019-02-05T08:50:57.871Z,74.30
2019-02-05T08:51:57.944Z,75.20
2019-02-05T08:52:57.848Z,66.70
2019-02-05T08:53:57.841Z,67.60
2019-02-05T08:54:57.830Z,67.70
2019-02-05T08:55:57.815Z,80.00
2019-02-05T08:56:57.805Z,75.90
2019-02-05T08:57:57.792Z,77.20
2019-02-05T08:58:57.785Z,76.00
2019-02-05T08:59:57.770Z,65.60
2019-02-05T09:00:57.765Z,74.80
2019-02-05T09:01:57.751Z,62.50
2019-02-05T09:02:57.744Z,66.70
2019-02-05T09:03:57.732Z,66.90
2019-02-05T09:04:57.723Z,73.40
2019-02-05T09:05:57.708Z,70.00
2019-02-05T09:06:57.707Z,63.70
2019-02-05T09:07:57.686Z,65.30
2019-02-05T09:08:57.680Z,67.30
2019-02-05T09:09:57.916Z,65.70
2019-02-05T09:10:57.658Z,68.00
2019-02-05T09:11:57.645Z,60.10
2019-02-05T09:12:57.639Z,63.50
2019-02-05T09:13:57.630Z,63.80
2019-02-05T09:14:57.616Z,55.00
2019-02-05T09:15:57.605Z,56.20
2019-02-05T09:16:57.596Z,65.20
2019-02-05T09:17:57.582Z,63.20
2019-02-05T09:18:57.587Z,72.90
2019-02-05T09:19:57.561Z,76.00
2019-02-05T09:20:57.553Z,68.80
2019-02-05T09:21:57.540Z,70.20
2019-02-05T09:22:57.630Z,66.40
2019-02-05T09:23:57.527Z,62.40
2019-02-05T09:24:57.511Z,63.60
2019-02-05T09:25:57.498Z,64.80
2019-02-05T09:26:57.490Z,63.10
2019-02-05T09:27:57.477Z,69.60
2019-02-05T09:28:57.474Z,68.90
2019-02-05T09:29:57.457Z,66.30
2019-02-05T09:30:57.449Z,60.00
2019-02-05T09:31:57.437Z,58.90
2019-02-05T09:32:57.434Z,55.70
2019-02-05T09:33:57.417Z,56.30
2019-02-05T09:34:57.409Z,56.10
2019-02-05T09:35:57.395Z,59.80
2019-02-05T09:36:57.389Z,62.40
2019-02-05T09:37:57.978Z,59.00
2019-02-05T09:38:57.368Z,57.40
2019-02-05T09:39:57.605Z,59.60
2019-02-05T09:40:57.349Z,57.10
2019-02-05T09:41:57.335Z,54.60
2019-02-05T09:42:57.329Z,51.20
2019-02-05T09:43:57.318Z,54.40
2019-02-05T09:44:57.609Z,52.40
2019-02-05T09:45:57.295Z,55.10
2019-02-05T09:46:57.289Z,52.90
2019-02-05T09:47:57.278Z,50.60
2019-02-05T09:48:57.272Z,46.60
2019-02-05T09:49:57.262Z,50.30
2019-02-05T09:50:57.253Z,48.60
2019-02-05T09:51:57.237Z,47.30
2019-02-05T09:52:57.230Z,47.00
2019-02-05T09:53:57.218Z,50.30
2019-02-05T09:54:57.210Z,41.70
2019-02-05T09:55:57.197Z,37.80
2019-02-05T09:56:57.190Z,39.70
2019-02-05T09:57:57.180Z,39.20
2019-02-05T09:58:57.173Z,39.90
2019-02-05T09:59:57.159Z,38.10
2019-02-05T10:00:59.682Z,37.20
2019-02-05T10:01:57.145Z,29.90
2019-02-05T10:02:57.133Z,31.20
2019-02-05T10:03:57.120Z,31.90
2019-02-05T10:04:57.115Z,29.10
2019-02-05T10:05:57.101Z,30.80
2019-02-05T10:06:57.096Z,31.10
2019-02-05T10:07:57.082Z,30.40
2019-02-05T10:08:57.076Z,29.80
2019-02-05T10:09:57.064Z,27.50
2019-02-05T10:10:57.057Z,31.90
2019-02-05T10:11:57.044Z,28.20
2019-02-05T10:12:57.037Z,31.20
2019-02-05T10:13:57.024Z,30.60
2019-02-05T10:14:57.018Z,30.70
2019-02-05T10:15:57.306Z,30.80
2019-02-05T10:16:56.998Z,28.50
2019-02-05T10:17:56.986Z,30.70
2019-02-05T10:18:56.980Z,28.30
2019-02-05T10:19:56.966Z,31.00
2019-02-05T10:20:56.960Z,31.90
2019-02-05T10:21:56.948Z,29.90
2019-02-05T10:22:56.943Z,27.80
2019-02-05T10:23:56.928Z,30.30
2019-02-05T10:24:56.922Z,29.30
2019-02-05T10:25:56.910Z,29.50
2019-02-05T10:26:56.904Z,30.20
2019-02-05T10:27:56.893Z,29.10
2019-02-05T10:28:56.906Z,30.00
2019-02-05T10:29:59.597Z,26.00
2019-02-05T10:30:56.867Z,27.30
2019-02-05T10:31:56.851Z,26.50
2019-02-05T10:32:56.844Z,25.50
2019-02-05T10:33:56.832Z,26.60
2019-02-05T10:34:56.826Z,27.40
2019-02-05T10:35:56.813Z,24.10
2019-02-05T10:36:56.807Z,23.20
2019-02-05T10:37:56.794Z,21.60
2019-02-05T10:38:56.788Z,22.40
2019-02-05T10:39:56.775Z,23.40
2019-02-05T10:40:56.769Z,22.80
2019-02-05T10:41:56.756Z,22.90
2019-02-05T10:42:56.750Z,21.50
2019-02-05T10:43:56.736Z,23.20
2019-02-05T10:44:56.729Z,25.50
2019-02-05T10:45:56.717Z,24.40
2019-02-05T10:46:56.712Z,25.60
2019-02-05T10:47:56.698Z,24.00
2019-02-05T10:48:56.692Z,26.10
2019-02-05T10:49:56.687Z,25.30
2019-02-05T10:50:56.679Z,26.80
2019-02-05T10:51:56.661Z,27.30
2019-02-05T10:52:56.655Z,28.70
2019-02-05T10:53:56.641Z,28.70
2019-02-05T10:54:56.634Z,27.90
2019-02-05T10:55:56.632Z,26.20
2019-02-05T10:56:56.616Z,27.50
2019-02-05T10:57:56.603Z,25.70
2019-02-05T10:58:56.603Z,28.10
2019-02-05T11:00:08.057Z,29.00
2019-02-05T11:00:56.589Z,25.80
2019-02-05T11:01:56.566Z,26.10
2019-02-05T11:02:56.667Z,30.60
2019-02-05T11:03:56.547Z,20.50
2019-02-05T11:04:56.540Z,25.80
2019-02-05T11:05:56.528Z,28.00
2019-02-05T11:06:56.521Z,27.80
2019-02-05T11:07:56.509Z,27.80
2019-02-05T11:08:56.502Z,26.90
2019-02-05T11:09:56.491Z,30.40
2019-02-05T11:10:56.484Z,28.70
2019-02-05T11:11:56.471Z,28.00
2019-02-05T11:12:56.465Z,28.70
2019-02-05T11:13:56.470Z,29.90
2019-02-05T11:14:56.448Z,29.70
2019-02-05T11:15:56.435Z,28.90
2019-02-05T11:16:56.427Z,31.30
2019-02-05T11:17:56.415Z,33.10
2019-02-05T11:18:56.410Z,32.60
2019-02-05T11:19:56.396Z,29.50
2019-02-05T11:20:56.391Z,32.30
2019-02-05T11:21:56.378Z,29.80
2019-02-05T11:22:56.374Z,29.50
2019-02-05T11:23:56.363Z,29.90
2019-02-05T11:24:56.354Z,28.30
2019-02-05T11:25:56.344Z,27.20
2019-02-05T11:26:56.336Z,29.30
2019-02-05T11:27:56.334Z,28.20
2019-02-05T11:28:56.317Z,28.40
2019-02-05T11:29:56.305Z,22.50
2019-02-05T11:30:56.298Z,26.50
2019-02-05T11:31:56.286Z,26.70
2019-02-05T11:32:56.280Z,28.10
2019-02-05T11:33:56.268Z,26.40
2019-02-05T11:34:56.261Z,25.20
2019-02-05T11:35:56.255Z,26.10
2019-02-05T11:36:56.243Z,26.90
2019-02-05T11:37:56.231Z,26.80
2019-02-05T11:38:56.226Z,28.70
2019-02-05T11:39:56.211Z,26.30
2019-02-05T11:40:56.204Z,25.90
2019-02-05T11:41:56.194Z,26.80
2019-02-05T11:42:56.187Z,26.90
2019-02-05T11:43:56.175Z,26.50
2019-02-05T11:44:56.168Z,27.70
2019-02-05T11:45:56.156Z,26.40
2019-02-05T11:46:56.154Z,26.70
2019-02-05T11:47:56.142Z,27.10
2019-02-05T11:48:56.133Z,23.40
2019-02-05T11:49:56.120Z,26.50
2019-02-05T11:50:56.112Z,25.60
2019-02-05T11:51:56.099Z,25.30
2019-02-05T11:52:56.096Z,26.70
2019-02-05T11:53:56.081Z,25.60
2019-02-05T11:54:56.076Z,23.30
2019-02-05T11:55:56.062Z,26.10
2019-02-05T11:56:56.055Z,25.20
2019-02-05T11:57:56.044Z,27.00
2019-02-05T11:58:56.039Z,26.60
2019-02-05T11:59:56.025Z,27.80
2019-02-05T12:00:56.019Z,24.90
2019-02-05T12:01:56.007Z,26.80
2019-02-05T12:02:56.001Z,27.20
2019-02-05T12:03:55.989Z,26.70
2019-02-05T12:04:55.978Z,25.00
2019-02-05T12:05:55.972Z,27.80
2019-02-05T12:06:55.960Z,26.60
2019-02-05T12:07:55.953Z,26.70
2019-02-05T12:08:55.941Z,28.90
2019-02-05T12:09:55.938Z,28.70
2019-02-05T12:10:55.923Z,27.20
2019-02-05T12:11:55.915Z,25.60
2019-02-05T12:12:55.931Z,27.20
2019-02-05T12:13:55.899Z,26.30
2019-02-05T12:14:56.137Z,28.10
2019-02-05T12:15:55.879Z,25.90
2019-02-05T12:16:55.868Z,26.80
2019-02-05T12:17:55.862Z,26.60
2019-02-05T12:18:55.850Z,26.90
2019-02-05T12:19:55.879Z,27.10
2019-02-05T12:20:56.131Z,25.80
2019-02-05T12:21:55.827Z,25.50
2019-02-05T12:22:55.813Z,29.20
2019-02-05T12:23:55.806Z,23.50
2019-02-05T12:24:55.795Z,24.30
2019-02-05T12:25:55.798Z,25.70
2019-02-05T12:26:55.777Z,27.40
2019-02-05T12:27:55.770Z,27.50
2019-02-05T12:28:55.759Z,26.90
2019-02-05T12:29:55.752Z,25.20
2019-02-05T12:30:55.747Z,27.10
2019-02-05T12:31:55.744Z,26.30
2019-02-05T12:32:55.722Z,25.90
2019-02-05T12:33:55.715Z,22.50
2019-02-05T12:34:55.704Z,26.70
2019-02-05T12:35:55.697Z,27.20
2019-02-05T12:36:55.684Z,28.00
2019-02-05T12:37:55.677Z,27.90
2019-02-05T12:38:55.667Z,26.80
2019-02-05T12:39:55.659Z,28.40
2019-02-05T12:40:55.647Z,26.40
2019-02-05T12:41:55.641Z,28.10
2019-02-05T12:42:55.628Z,28.80
2019-02-05T12:43:55.620Z,26.40
2019-02-05T12:44:55.610Z,26.90
2019-02-05T12:45:55.603Z,28.60
2019-02-05T12:46:55.609Z,30.30
2019-02-05T12:47:55.584Z,29.20
2019-02-05T12:48:55.573Z,30.90
2019-02-05T12:49:55.566Z,27.50
2019-02-05T12:50:55.554Z,30.40
2019-02-05T12:51:55.553Z,28.20